sensor_id;sensor_type;location;lat;lon;timestamp;P1;durP1;ratioP1;P2;durP2;ratioP2
16075;SDS011;8142;48.242;11.644;2023-12-20T00:01:54;4.63;;;2.30;;
16075;SDS011;8142;48.242;11.644;2023-12-20T00:04:20;3.73;;;2.50;;
16075;SDS011;8142;48.242;11.644;2023-12-20T00:06:46;2.13;;;1.83;;
16075;SDS011;8142;48.242;11.644;2023-12-20T00:09:12;3.13;;;1.80;;
16075;SDS011;8142;48.242;11.644;2023-12-20T00:11:38;2.23;;;2.03;;
16075;SDS011;8142;48.242;11.644;2023-12-20T00:14:04;2.33;;;1.90;;
16075;SDS011;8142;48.242;11.644;2023-12-20T00:16:30;3.20;;;2.23;;
16075;SDS011;8142;48.242;11.644;2023-12-20T00:18:57;2.30;;;1.97;;
16075;SDS011;8142;48.242;11.644;2023-12-20T00:21:23;2.00;;;1.80;;
16075;SDS011;8142;48.242;11.644;2023-12-20T00:23:49;2.73;;;2.00;;
16075;SDS011;8142;48.242;11.644;2023-12-20T00:26:15;2.47;;;2.10;;
16075;SDS011;8142;48.242;11.644;2023-12-20T00:28:41;4.27;;;1.97;;
16075;SDS011;8142;48.242;11.644;2023-12-20T00:31:08;2.20;;;2.00;;
16075;SDS011;8142;48.242;11.644;2023-12-20T00:33:34;2.30;;;2.10;;
16075;SDS011;8142;48.242;11.644;2023-12-20T00:36:00;4.47;;;2.27;;
16075;SDS011;8142;48.242;11.644;2023-12-20T00:38:26;3.10;;;2.20;;
16075;SDS011;8142;48.242;11.644;2023-12-20T00:40:52;2.63;;;2.17;;
16075;SDS011;8142;48.242;11.644;2023-12-20T00:43:17;2.30;;;2.10;;
16075;SDS011;8142;48.242;11.644;2023-12-20T00:45:43;2.67;;;2.30;;
16075;SDS011;8142;48.242;11.644;2023-12-20T00:48:09;3.07;;;2.17;;
16075;SDS011;8142;48.242;11.644;2023-12-20T00:50:35;2.70;;;2.20;;
16075;SDS011;8142;48.242;11.644;2023-12-20T00:53:01;2.90;;;2.37;;
16075;SDS011;8142;48.242;11.644;2023-12-20T00:55:27;3.00;;;2.33;;
16075;SDS011;8142;48.242;11.644;2023-12-20T00:57:53;2.47;;;1.93;;
16075;SDS011;8142;48.242;11.644;2023-12-20T01:00:19;2.57;;;2.30;;
16075;SDS011;8142;48.242;11.644;2023-12-20T01:02:45;3.30;;;2.33;;
16075;SDS011;8142;48.242;11.644;2023-12-20T01:05:14;3.10;;;2.23;;
16075;SDS011;8142;48.242;11.644;2023-12-20T01:07:40;4.80;;;2.40;;
16075;SDS011;8142;48.242;11.644;2023-12-20T01:10:09;2.93;;;2.10;;
16075;SDS011;8142;48.242;11.644;2023-12-20T01:12:37;2.33;;;2.03;;
16075;SDS011;8142;48.242;11.644;2023-12-20T01:15:03;3.53;;;2.30;;
16075;SDS011;8142;48.242;11.644;2023-12-20T01:17:30;2.10;;;1.80;;
16075;SDS011;8142;48.242;11.644;2023-12-20T01:19:56;3.30;;;2.20;;
16075;SDS011;8142;48.242;11.644;2023-12-20T01:22:22;2.17;;;1.90;;
16075;SDS011;8142;48.242;11.644;2023-12-20T01:24:47;2.60;;;2.23;;
16075;SDS011;8142;48.242;11.644;2023-12-20T01:27:13;2.63;;;1.83;;
16075;SDS011;8142;48.242;11.644;2023-12-20T01:29:39;2.53;;;1.80;;
16075;SDS011;8142;48.242;11.644;2023-12-20T01:32:05;2.03;;;1.77;;
16075;SDS011;8142;48.242;11.644;2023-12-20T01:34:31;2.30;;;1.70;;
16075;SDS011;8142;48.242;11.644;2023-12-20T01:36:57;2.37;;;1.83;;
16075;SDS011;8142;48.242;11.644;2023-12-20T01:39:23;3.33;;;1.90;;
16075;SDS011;8142;48.242;11.644;2023-12-20T01:42:10;2.17;;;1.90;;
16075;SDS011;8142;48.242;11.644;2023-12-20T01:44:36;2.40;;;1.80;;
16075;SDS011;8142;48.242;11.644;2023-12-20T01:47:08;2.70;;;1.70;;
16075;SDS011;8142;48.242;11.644;2023-12-20T01:49:34;2.37;;;1.80;;
16075;SDS011;8142;48.242;11.644;2023-12-20T01:52:00;2.30;;;1.80;;
16075;SDS011;8142;48.242;11.644;2023-12-20T01:54:27;1.80;;;1.70;;
16075;SDS011;8142;48.242;11.644;2023-12-20T01:56:53;2.13;;;1.80;;
16075;SDS011;8142;48.242;11.644;2023-12-20T01:59:19;2.67;;;1.80;;
16075;SDS011;8142;48.242;11.644;2023-12-20T02:01:46;2.43;;;1.97;;
16075;SDS011;8142;48.242;11.644;2023-12-20T02:04:12;2.33;;;1.87;;
16075;SDS011;8142;48.242;11.644;2023-12-20T02:06:39;1.90;;;1.80;;
16075;SDS011;8142;48.242;11.644;2023-12-20T02:09:06;2.23;;;1.97;;
16075;SDS011;8142;48.242;11.644;2023-12-20T02:11:32;1.73;;;1.60;;
16075;SDS011;8142;48.242;11.644;2023-12-20T02:14:00;1.77;;;1.67;;
16075;SDS011;8142;48.242;11.644;2023-12-20T02:16:27;2.13;;;1.60;;
16075;SDS011;8142;48.242;11.644;2023-12-20T02:18:52;2.67;;;1.50;;
16075;SDS011;8142;48.242;11.644;2023-12-20T02:21:23;1.60;;;1.50;;
16075;SDS011;8142;48.242;11.644;2023-12-20T02:24:00;2.53;;;1.63;;
16075;SDS011;8142;48.242;11.644;2023-12-20T02:26:26;1.70;;;1.60;;
16075;SDS011;8142;48.242;11.644;2023-12-20T02:28:52;2.30;;;1.60;;
16075;SDS011;8142;48.242;11.644;2023-12-20T02:31:20;1.50;;;1.40;;
16075;SDS011;8142;48.242;11.644;2023-12-20T02:33:47;1.73;;;1.63;;
16075;SDS011;8142;48.242;11.644;2023-12-20T02:36:13;1.63;;;1.50;;
16075;SDS011;8142;48.242;11.644;2023-12-20T02:38:39;2.10;;;1.70;;
16075;SDS011;8142;48.242;11.644;2023-12-20T02:41:05;3.00;;;1.40;;
16075;SDS011;8142;48.242;11.644;2023-12-20T02:43:31;1.77;;;1.47;;
16075;SDS011;8142;48.242;11.644;2023-12-20T02:45:57;1.67;;;1.30;;
16075;SDS011;8142;48.242;11.644;2023-12-20T02:48:22;1.60;;;1.50;;
16075;SDS011;8142;48.242;11.644;2023-12-20T02:50:48;1.67;;;1.50;;
16075;SDS011;8142;48.242;11.644;2023-12-20T02:53:14;1.77;;;1.40;;
16075;SDS011;8142;48.242;11.644;2023-12-20T02:55:40;1.30;;;1.20;;
16075;SDS011;8142;48.242;11.644;2023-12-20T02:58:06;3.13;;;1.37;;
16075;SDS011;8142;48.242;11.644;2023-12-20T03:00:32;1.50;;;1.30;;
16075;SDS011;8142;48.242;11.644;2023-12-20T03:02:58;1.57;;;1.23;;
16075;SDS011;8142;48.242;11.644;2023-12-20T03:05:25;1.30;;;1.20;;
16075;SDS011;8142;48.242;11.644;2023-12-20T03:07:51;1.83;;;1.20;;
16075;SDS011;8142;48.242;11.644;2023-12-20T03:10:18;1.57;;;1.40;;
16075;SDS011;8142;48.242;11.644;2023-12-20T03:12:44;2.67;;;1.33;;
16075;SDS011;8142;48.242;11.644;2023-12-20T03:15:10;1.90;;;1.50;;
16075;SDS011;8142;48.242;11.644;2023-12-20T03:17:36;1.07;;;1.00;;
16075;SDS011;8142;48.242;11.644;2023-12-20T03:20:02;1.80;;;1.40;;
16075;SDS011;8142;48.242;11.644;2023-12-20T03:22:29;3.17;;;1.63;;
16075;SDS011;8142;48.242;11.644;2023-12-20T03:24:54;1.63;;;1.43;;
16075;SDS011;8142;48.242;11.644;2023-12-20T03:27:20;1.70;;;1.50;;
16075;SDS011;8142;48.242;11.644;2023-12-20T03:29:46;1.60;;;1.50;;
16075;SDS011;8142;48.242;11.644;2023-12-20T03:32:12;1.60;;;1.50;;
16075;SDS011;8142;48.242;11.644;2023-12-20T03:34:38;2.73;;;1.30;;
16075;SDS011;8142;48.242;11.644;2023-12-20T03:37:05;1.47;;;1.20;;
16075;SDS011;8142;48.242;11.644;2023-12-20T03:39:32;1.30;;;1.10;;
16075;SDS011;8142;48.242;11.644;2023-12-20T03:41:57;1.37;;;1.27;;
16075;SDS011;8142;48.242;11.644;2023-12-20T03:44:23;1.40;;;1.30;;
16075;SDS011;8142;48.242;11.644;2023-12-20T03:46:49;1.50;;;1.40;;
16075;SDS011;8142;48.242;11.644;2023-12-20T03:49:15;1.63;;;1.30;;
16075;SDS011;8142;48.242;11.644;2023-12-20T03:51:41;1.97;;;1.10;;
16075;SDS011;8142;48.242;11.644;2023-12-20T03:54:08;1.00;;;1.00;;
16075;SDS011;8142;48.242;11.644;2023-12-20T03:56:34;1.20;;;1.10;;
16075;SDS011;8142;48.242;11.644;2023-12-20T03:59:01;1.27;;;1.20;;
16075;SDS011;8142;48.242;11.644;2023-12-20T04:01:27;1.10;;;1.10;;
16075;SDS011;8142;48.242;11.644;2023-12-20T04:03:53;1.20;;;1.10;;
16075;SDS011;8142;48.242;11.644;2023-12-20T04:06:19;1.10;;;1.10;;
16075;SDS011;8142;48.242;11.644;2023-12-20T04:08:45;1.43;;;1.23;;
16075;SDS011;8142;48.242;11.644;2023-12-20T04:11:11;1.50;;;1.40;;
16075;SDS011;8142;48.242;11.644;2023-12-20T04:13:37;1.60;;;1.50;;
16075;SDS011;8142;48.242;11.644;2023-12-20T04:16:03;1.63;;;1.53;;
16075;SDS011;8142;48.242;11.644;2023-12-20T04:18:31;1.50;;;1.40;;
16075;SDS011;8142;48.242;11.644;2023-12-20T04:20:59;1.90;;;1.63;;
16075;SDS011;8142;48.242;11.644;2023-12-20T04:23:28;1.63;;;1.50;;
16075;SDS011;8142;48.242;11.644;2023-12-20T04:25:57;1.70;;;1.60;;
16075;SDS011;8142;48.242;11.644;2023-12-20T04:28:23;1.83;;;1.70;;
16075;SDS011;8142;48.242;11.644;2023-12-20T04:30:49;1.67;;;1.57;;
16075;SDS011;8142;48.242;11.644;2023-12-20T04:33:15;1.50;;;1.40;;
16075;SDS011;8142;48.242;11.644;2023-12-20T04:35:40;2.10;;;1.90;;
16075;SDS011;8142;48.242;11.644;2023-12-20T04:38:08;1.93;;;1.70;;
16075;SDS011;8142;48.242;11.644;2023-12-20T04:40:35;1.80;;;1.70;;
16075;SDS011;8142;48.242;11.644;2023-12-20T04:43:03;1.63;;;1.53;;
16075;SDS011;8142;48.242;11.644;2023-12-20T04:45:30;2.17;;;1.97;;
16075;SDS011;8142;48.242;11.644;2023-12-20T04:47:56;2.87;;;1.97;;
16075;SDS011;8142;48.242;11.644;2023-12-20T04:50:21;2.27;;;2.07;;
16075;SDS011;8142;48.242;11.644;2023-12-20T04:52:47;2.30;;;2.10;;
16075;SDS011;8142;48.242;11.644;2023-12-20T04:55:13;2.10;;;1.90;;
16075;SDS011;8142;48.242;11.644;2023-12-20T04:57:39;2.33;;;2.10;;
16075;SDS011;8142;48.242;11.644;2023-12-20T05:00:05;3.00;;;2.10;;
16075;SDS011;8142;48.242;11.644;2023-12-20T05:02:37;3.87;;;2.27;;
16075;SDS011;8142;48.242;11.644;2023-12-20T05:05:05;5.00;;;2.50;;
16075;SDS011;8142;48.242;11.644;2023-12-20T05:07:34;3.23;;;2.33;;
16075;SDS011;8142;48.242;11.644;2023-12-20T05:10:00;2.60;;;2.33;;
16075;SDS011;8142;48.242;11.644;2023-12-20T05:12:25;2.97;;;2.50;;
16075;SDS011;8142;48.242;11.644;2023-12-20T05:14:51;2.73;;;2.50;;
16075;SDS011;8142;48.242;11.644;2023-12-20T05:17:17;3.00;;;2.70;;
16075;SDS011;8142;48.242;11.644;2023-12-20T05:19:45;4.20;;;2.60;;
16075;SDS011;8142;48.242;11.644;2023-12-20T05:22:11;4.40;;;2.47;;
16075;SDS011;8142;48.242;11.644;2023-12-20T05:24:38;4.40;;;2.90;;
16075;SDS011;8142;48.242;11.644;2023-12-20T05:27:05;2.73;;;2.47;;
16075;SDS011;8142;48.242;11.644;2023-12-20T05:29:32;2.60;;;2.40;;
16075;SDS011;8142;48.242;11.644;2023-12-20T05:31:58;3.33;;;2.90;;
16075;SDS011;8142;48.242;11.644;2023-12-20T05:34:24;3.23;;;2.90;;
16075;SDS011;8142;48.242;11.644;2023-12-20T05:36:50;4.03;;;2.80;;
16075;SDS011;8142;48.242;11.644;2023-12-20T05:39:16;3.27;;;2.97;;
16075;SDS011;8142;48.242;11.644;2023-12-20T05:41:42;3.47;;;3.17;;
16075;SDS011;8142;48.242;11.644;2023-12-20T05:44:08;4.87;;;3.23;;
16075;SDS011;8142;48.242;11.644;2023-12-20T05:46:37;5.53;;;3.00;;
16075;SDS011;8142;48.242;11.644;2023-12-20T05:49:04;5.03;;;3.53;;
16075;SDS011;8142;48.242;11.644;2023-12-20T05:51:29;4.73;;;3.23;;
16075;SDS011;8142;48.242;11.644;2023-12-20T05:53:55;4.70;;;3.70;;
16075;SDS011;8142;48.242;11.644;2023-12-20T05:56:21;4.57;;;3.40;;
16075;SDS011;8142;48.242;11.644;2023-12-20T05:58:47;5.63;;;3.43;;
16075;SDS011;8142;48.242;11.644;2023-12-20T06:01:16;4.87;;;3.33;;
16075;SDS011;8142;48.242;11.644;2023-12-20T06:03:42;5.37;;;3.80;;
16075;SDS011;8142;48.242;11.644;2023-12-20T06:06:09;4.93;;;3.70;;
16075;SDS011;8142;48.242;11.644;2023-12-20T06:08:36;5.20;;;3.77;;
16075;SDS011;8142;48.242;11.644;2023-12-20T06:11:03;4.53;;;3.50;;
16075;SDS011;8142;48.242;11.644;2023-12-20T06:13:31;5.00;;;3.33;;
16075;SDS011;8142;48.242;11.644;2023-12-20T06:15:56;5.40;;;3.77;;
16075;SDS011;8142;48.242;11.644;2023-12-20T06:18:23;4.30;;;3.20;;
16075;SDS011;8142;48.242;11.644;2023-12-20T06:20:49;4.87;;;3.30;;
16075;SDS011;8142;48.242;11.644;2023-12-20T06:23:15;4.67;;;3.37;;
16075;SDS011;8142;48.242;11.644;2023-12-20T06:25:41;5.10;;;3.13;;
16075;SDS011;8142;48.242;11.644;2023-12-20T06:28:08;4.00;;;3.00;;
16075;SDS011;8142;48.242;11.644;2023-12-20T06:30:37;4.07;;;3.37;;
16075;SDS011;8142;48.242;11.644;2023-12-20T06:33:04;4.47;;;2.90;;
16075;SDS011;8142;48.242;11.644;2023-12-20T06:35:32;4.23;;;3.30;;
16075;SDS011;8142;48.242;11.644;2023-12-20T06:37:58;4.80;;;3.40;;
16075;SDS011;8142;48.242;11.644;2023-12-20T06:40:24;4.20;;;3.00;;
16075;SDS011;8142;48.242;11.644;2023-12-20T06:42:50;3.23;;;2.93;;
16075;SDS011;8142;48.242;11.644;2023-12-20T06:45:15;3.17;;;2.77;;
16075;SDS011;8142;48.242;11.644;2023-12-20T06:47:41;3.50;;;2.83;;
16075;SDS011;8142;48.242;11.644;2023-12-20T06:50:07;3.90;;;2.90;;
16075;SDS011;8142;48.242;11.644;2023-12-20T06:52:41;3.80;;;3.03;;
16075;SDS011;8142;48.242;11.644;2023-12-20T06:55:09;4.30;;;3.00;;
16075;SDS011;8142;48.242;11.644;2023-12-20T06:57:36;4.77;;;3.10;;
16075;SDS011;8142;48.242;11.644;2023-12-20T07:00:02;3.63;;;2.90;;
16075;SDS011;8142;48.242;11.644;2023-12-20T07:02:29;3.60;;;3.03;;
16075;SDS011;8142;48.242;11.644;2023-12-20T07:04:55;3.10;;;2.80;;
16075;SDS011;8142;48.242;11.644;2023-12-20T07:07:21;3.77;;;3.10;;
16075;SDS011;8142;48.242;11.644;2023-12-20T07:09:49;4.57;;;3.40;;
16075;SDS011;8142;48.242;11.644;2023-12-20T07:12:15;4.93;;;2.83;;
16075;SDS011;8142;48.242;11.644;2023-12-20T07:14:42;3.30;;;3.00;;
16075;SDS011;8142;48.242;11.644;2023-12-20T07:17:11;3.37;;;3.07;;
16075;SDS011;8142;48.242;11.644;2023-12-20T07:19:39;5.27;;;2.80;;
16075;SDS011;8142;48.242;11.644;2023-12-20T07:22:05;3.20;;;2.90;;
16075;SDS011;8142;48.242;11.644;2023-12-20T07:24:32;3.50;;;2.80;;
16075;SDS011;8142;48.242;11.644;2023-12-20T07:27:01;3.20;;;2.60;;
16075;SDS011;8142;48.242;11.644;2023-12-20T07:29:28;2.83;;;2.60;;
16075;SDS011;8142;48.242;11.644;2023-12-20T07:31:54;3.70;;;2.80;;
16075;SDS011;8142;48.242;11.644;2023-12-20T07:34:20;2.83;;;2.60;;
16075;SDS011;8142;48.242;11.644;2023-12-20T07:36:47;2.47;;;2.27;;
16075;SDS011;8142;48.242;11.644;2023-12-20T07:39:14;3.03;;;2.20;;
16075;SDS011;8142;48.242;11.644;2023-12-20T07:41:41;2.57;;;2.37;;
16075;SDS011;8142;48.242;11.644;2023-12-20T07:44:07;2.50;;;2.30;;
16075;SDS011;8142;48.242;11.644;2023-12-20T07:46:33;2.50;;;2.30;;
16075;SDS011;8142;48.242;11.644;2023-12-20T07:48:59;2.30;;;2.10;;
16075;SDS011;8142;48.242;11.644;2023-12-20T07:51:25;2.27;;;2.07;;
16075;SDS011;8142;48.242;11.644;2023-12-20T07:53:51;2.37;;;2.07;;
16075;SDS011;8142;48.242;11.644;2023-12-20T07:56:17;4.00;;;2.23;;
16075;SDS011;8142;48.242;11.644;2023-12-20T07:58:45;2.03;;;1.87;;
16075;SDS011;8142;48.242;11.644;2023-12-20T08:01:15;2.60;;;1.90;;
16075;SDS011;8142;48.242;11.644;2023-12-20T08:03:43;2.20;;;1.80;;
16075;SDS011;8142;48.242;11.644;2023-12-20T08:06:09;2.23;;;1.80;;
16075;SDS011;8142;48.242;11.644;2023-12-20T08:08:35;2.43;;;1.70;;
16075;SDS011;8142;48.242;11.644;2023-12-20T08:11:01;2.03;;;1.70;;
16075;SDS011;8142;48.242;11.644;2023-12-20T08:13:28;2.10;;;1.90;;
16075;SDS011;8142;48.242;11.644;2023-12-20T08:15:54;2.00;;;1.60;;
16075;SDS011;8142;48.242;11.644;2023-12-20T08:18:21;2.13;;;1.60;;
16075;SDS011;8142;48.242;11.644;2023-12-20T08:20:48;1.63;;;1.50;;
16075;SDS011;8142;48.242;11.644;2023-12-20T08:23:15;2.67;;;1.50;;
16075;SDS011;8142;48.242;11.644;2023-12-20T08:25:41;1.67;;;1.57;;
16075;SDS011;8142;48.242;11.644;2023-12-20T08:28:07;2.50;;;1.70;;
16075;SDS011;8142;48.242;11.644;2023-12-20T08:30:33;1.53;;;1.43;;
16075;SDS011;8142;48.242;11.644;2023-12-20T08:33:00;1.53;;;1.43;;
16075;SDS011;8142;48.242;11.644;2023-12-20T08:35:26;1.77;;;1.67;;
16075;SDS011;8142;48.242;11.644;2023-12-20T08:37:52;1.63;;;1.50;;
16075;SDS011;8142;48.242;11.644;2023-12-20T08:40:18;1.63;;;1.53;;
16075;SDS011;8142;48.242;11.644;2023-12-20T08:42:43;1.47;;;1.37;;
16075;SDS011;8142;48.242;11.644;2023-12-20T08:45:09;2.10;;;1.33;;
16075;SDS011;8142;48.242;11.644;2023-12-20T08:47:35;2.00;;;1.63;;
16075;SDS011;8142;48.242;11.644;2023-12-20T08:50:02;1.13;;;1.13;;
16075;SDS011;8142;48.242;11.644;2023-12-20T08:52:29;4.50;;;1.40;;
16075;SDS011;8142;48.242;11.644;2023-12-20T08:54:55;1.53;;;1.43;;
16075;SDS011;8142;48.242;11.644;2023-12-20T08:57:21;1.57;;;1.40;;
16075;SDS011;8142;48.242;11.644;2023-12-20T08:59:49;1.50;;;1.40;;
16075;SDS011;8142;48.242;11.644;2023-12-20T09:02:16;1.60;;;1.50;;
16075;SDS011;8142;48.242;11.644;2023-12-20T09:04:42;1.50;;;1.40;;
16075;SDS011;8142;48.242;11.644;2023-12-20T09:07:23;1.40;;;1.30;;
16075;SDS011;8142;48.242;11.644;2023-12-20T09:09:51;1.50;;;1.30;;
16075;SDS011;8142;48.242;11.644;2023-12-20T09:12:18;2.00;;;1.63;;
16075;SDS011;8142;48.242;11.644;2023-12-20T09:14:45;2.30;;;1.50;;
16075;SDS011;8142;48.242;11.644;2023-12-20T09:17:11;1.60;;;1.50;;
16075;SDS011;8142;48.242;11.644;2023-12-20T09:19:38;1.70;;;1.60;;
16075;SDS011;8142;48.242;11.644;2023-12-20T09:22:04;2.33;;;1.60;;
16075;SDS011;8142;48.242;11.644;2023-12-20T09:24:31;1.80;;;1.70;;
16075;SDS011;8142;48.242;11.644;2023-12-20T09:26:57;1.80;;;1.70;;
16075;SDS011;8142;48.242;11.644;2023-12-20T09:29:23;1.93;;;1.73;;
16075;SDS011;8142;48.242;11.644;2023-12-20T09:31:50;1.70;;;1.60;;
16075;SDS011;8142;48.242;11.644;2023-12-20T09:34:16;1.60;;;1.40;;
16075;SDS011;8142;48.242;11.644;2023-12-20T09:36:45;1.83;;;1.47;;
16075;SDS011;8142;48.242;11.644;2023-12-20T09:39:17;1.63;;;1.40;;
16075;SDS011;8142;48.242;11.644;2023-12-20T09:41:45;2.43;;;1.60;;
16075;SDS011;8142;48.242;11.644;2023-12-20T09:44:14;1.60;;;1.50;;
16075;SDS011;8142;48.242;11.644;2023-12-20T09:46:43;1.60;;;1.50;;
16075;SDS011;8142;48.242;11.644;2023-12-20T09:49:11;2.50;;;1.47;;
16075;SDS011;8142;48.242;11.644;2023-12-20T09:51:38;2.20;;;1.47;;
16075;SDS011;8142;48.242;11.644;2023-12-20T09:54:05;1.67;;;1.57;;
16075;SDS011;8142;48.242;11.644;2023-12-20T09:56:31;2.50;;;1.37;;
16075;SDS011;8142;48.242;11.644;2023-12-20T09:58:57;1.70;;;1.37;;
16075;SDS011;8142;48.242;11.644;2023-12-20T10:01:23;1.60;;;1.50;;
16075;SDS011;8142;48.242;11.644;2023-12-20T10:03:50;1.97;;;1.67;;
16075;SDS011;8142;48.242;11.644;2023-12-20T10:06:19;1.50;;;1.40;;
16075;SDS011;8142;48.242;11.644;2023-12-20T10:08:46;1.60;;;1.50;;
16075;SDS011;8142;48.242;11.644;2023-12-20T10:11:21;1.60;;;1.50;;
16075;SDS011;8142;48.242;11.644;2023-12-20T10:13:47;1.60;;;1.50;;
16075;SDS011;8142;48.242;11.644;2023-12-20T10:16:14;1.80;;;1.70;;
16075;SDS011;8142;48.242;11.644;2023-12-20T10:18:40;2.20;;;1.73;;
16075;SDS011;8142;48.242;11.644;2023-12-20T10:21:06;1.57;;;1.47;;
16075;SDS011;8142;48.242;11.644;2023-12-20T10:23:35;2.17;;;1.70;;
16075;SDS011;8142;48.242;11.644;2023-12-20T10:26:02;2.67;;;1.70;;
16075;SDS011;8142;48.242;11.644;2023-12-20T10:28:28;2.80;;;1.80;;
16075;SDS011;8142;48.242;11.644;2023-12-20T10:30:59;2.13;;;1.93;;
16075;SDS011;8142;48.242;11.644;2023-12-20T10:33:26;2.20;;;2.00;;
16075;SDS011;8142;48.242;11.644;2023-12-20T10:35:54;2.33;;;1.93;;
16075;SDS011;8142;48.242;11.644;2023-12-20T10:38:20;2.43;;;1.80;;
16075;SDS011;8142;48.242;11.644;2023-12-20T10:40:47;1.93;;;1.73;;
16075;SDS011;8142;48.242;11.644;2023-12-20T10:43:14;2.70;;;2.10;;
16075;SDS011;8142;48.242;11.644;2023-12-20T10:45:41;3.17;;;2.20;;
16075;SDS011;8142;48.242;11.644;2023-12-20T10:48:09;2.13;;;1.93;;
16075;SDS011;8142;48.242;11.644;2023-12-20T10:50:37;2.20;;;1.97;;
16075;SDS011;8142;48.242;11.644;2023-12-20T10:53:04;1.90;;;1.80;;
16075;SDS011;8142;48.242;11.644;2023-12-20T10:55:30;2.20;;;2.00;;
16075;SDS011;8142;48.242;11.644;2023-12-20T10:58:06;2.00;;;1.80;;
16075;SDS011;8142;48.242;11.644;2023-12-20T11:00:34;1.87;;;1.60;;
16075;SDS011;8142;48.242;11.644;2023-12-20T11:03:09;2.00;;;1.80;;
16075;SDS011;8142;48.242;11.644;2023-12-20T11:08:20;1.97;;;1.73;;
16075;SDS011;8142;48.242;11.644;2023-12-20T11:11:02;2.07;;;1.70;;
16075;SDS011;8142;48.242;11.644;2023-12-20T11:13:36;1.87;;;1.50;;
16075;SDS011;8142;48.242;11.644;2023-12-20T11:16:06;2.77;;;1.77;;
16075;SDS011;8142;48.242;11.644;2023-12-20T11:18:33;1.70;;;1.60;;
16075;SDS011;8142;48.242;11.644;2023-12-20T11:21:02;1.70;;;1.60;;
16075;SDS011;8142;48.242;11.644;2023-12-20T11:23:30;1.80;;;1.70;;
16075;SDS011;8142;48.242;11.644;2023-12-20T11:25:59;2.47;;;2.00;;
16075;SDS011;8142;48.242;11.644;2023-12-20T11:28:27;2.73;;;1.90;;
16075;SDS011;8142;48.242;11.644;2023-12-20T11:30:55;2.00;;;1.80;;
16075;SDS011;8142;48.242;11.644;2023-12-20T11:33:25;1.73;;;1.63;;
16075;SDS011;8142;48.242;11.644;2023-12-20T11:35:58;2.37;;;1.87;;
16075;SDS011;8142;48.242;11.644;2023-12-20T11:38:25;2.00;;;1.73;;
16075;SDS011;8142;48.242;11.644;2023-12-20T11:40:53;1.73;;;1.63;;
16075;SDS011;8142;48.242;11.644;2023-12-20T11:43:29;1.53;;;1.43;;
16075;SDS011;8142;48.242;11.644;2023-12-20T11:46:02;1.60;;;1.50;;
16075;SDS011;8142;48.242;11.644;2023-12-20T11:48:32;1.70;;;1.60;;
16075;SDS011;8142;48.242;11.644;2023-12-20T11:50:59;2.20;;;1.80;;
16075;SDS011;8142;48.242;11.644;2023-12-20T11:53:25;2.13;;;1.87;;
16075;SDS011;8142;48.242;11.644;2023-12-20T11:55:51;2.10;;;1.90;;
16075;SDS011;8142;48.242;11.644;2023-12-20T11:58:18;1.77;;;1.67;;
16075;SDS011;8142;48.242;11.644;2023-12-20T12:00:45;2.63;;;1.60;;
16075;SDS011;8142;48.242;11.644;2023-12-20T12:03:14;2.03;;;1.77;;
16075;SDS011;8142;48.242;11.644;2023-12-20T12:05:40;1.57;;;1.47;;
16075;SDS011;8142;48.242;11.644;2023-12-20T12:08:06;1.70;;;1.60;;
16075;SDS011;8142;48.242;11.644;2023-12-20T12:10:33;1.70;;;1.60;;
16075;SDS011;8142;48.242;11.644;2023-12-20T12:12:59;1.60;;;1.50;;
16075;SDS011;8142;48.242;11.644;2023-12-20T12:15:26;1.97;;;1.87;;
16075;SDS011;8142;48.242;11.644;2023-12-20T12:17:52;1.70;;;1.60;;
16075;SDS011;8142;48.242;11.644;2023-12-20T12:20:22;2.20;;;1.90;;
16075;SDS011;8142;48.242;11.644;2023-12-20T12:22:58;1.90;;;1.80;;
16075;SDS011;8142;48.242;11.644;2023-12-20T12:25:31;2.50;;;1.80;;
16075;SDS011;8142;48.242;11.644;2023-12-20T12:28:00;1.63;;;1.53;;
16075;SDS011;8142;48.242;11.644;2023-12-20T12:30:26;1.93;;;1.50;;
16075;SDS011;8142;48.242;11.644;2023-12-20T12:32:53;1.70;;;1.60;;
16075;SDS011;8142;48.242;11.644;2023-12-20T12:35:19;2.40;;;1.90;;
16075;SDS011;8142;48.242;11.644;2023-12-20T12:37:46;1.93;;;1.70;;
16075;SDS011;8142;48.242;11.644;2023-12-20T12:40:13;2.40;;;1.60;;
16075;SDS011;8142;48.242;11.644;2023-12-20T12:42:40;1.90;;;1.80;;
16075;SDS011;8142;48.242;11.644;2023-12-20T12:45:08;1.60;;;1.50;;
16075;SDS011;8142;48.242;11.644;2023-12-20T12:47:34;2.30;;;1.87;;
16075;SDS011;8142;48.242;11.644;2023-12-20T12:50:00;2.77;;;1.70;;
16075;SDS011;8142;48.242;11.644;2023-12-20T12:52:27;1.67;;;1.57;;
16075;SDS011;8142;48.242;11.644;2023-12-20T12:54:53;2.03;;;1.70;;
16075;SDS011;8142;48.242;11.644;2023-12-20T12:57:19;2.97;;;2.00;;
16075;SDS011;8142;48.242;11.644;2023-12-20T12:59:45;2.27;;;2.10;;
16075;SDS011;8142;48.242;11.644;2023-12-20T13:02:14;2.10;;;1.90;;
16075;SDS011;8142;48.242;11.644;2023-12-20T13:04:41;2.53;;;2.10;;
16075;SDS011;8142;48.242;11.644;2023-12-20T13:07:07;2.30;;;1.80;;
16075;SDS011;8142;48.242;11.644;2023-12-20T13:09:36;2.10;;;1.90;;
16075;SDS011;8142;48.242;11.644;2023-12-20T13:12:02;1.80;;;1.70;;
16075;SDS011;8142;48.242;11.644;2023-12-20T13:14:31;3.13;;;1.77;;
16075;SDS011;8142;48.242;11.644;2023-12-20T13:16:58;2.70;;;1.90;;
16075;SDS011;8142;48.242;11.644;2023-12-20T13:19:24;6.03;;;3.33;;
16075;SDS011;8142;48.242;11.644;2023-12-20T13:21:50;8.23;;;4.60;;
16075;SDS011;8142;48.242;11.644;2023-12-20T13:24:16;8.63;;;4.50;;
16075;SDS011;8142;48.242;11.644;2023-12-20T13:26:42;7.83;;;4.47;;
16075;SDS011;8142;48.242;11.644;2023-12-20T13:29:08;8.07;;;4.40;;
16075;SDS011;8142;48.242;11.644;2023-12-20T13:31:34;5.87;;;3.50;;
16075;SDS011;8142;48.242;11.644;2023-12-20T13:34:01;3.07;;;2.10;;
16075;SDS011;8142;48.242;11.644;2023-12-20T13:36:27;2.33;;;1.70;;
16075;SDS011;8142;48.242;11.644;2023-12-20T13:38:53;3.27;;;1.60;;
16075;SDS011;8142;48.242;11.644;2023-12-20T13:41:19;2.00;;;1.80;;
16075;SDS011;8142;48.242;11.644;2023-12-20T13:43:45;2.20;;;2.00;;
16075;SDS011;8142;48.242;11.644;2023-12-20T13:46:11;2.13;;;1.93;;
16075;SDS011;8142;48.242;11.644;2023-12-20T13:48:39;5.07;;;1.83;;
16075;SDS011;8142;48.242;11.644;2023-12-20T13:51:05;3.77;;;1.77;;
16075;SDS011;8142;48.242;11.644;2023-12-20T13:53:31;3.83;;;2.00;;
16075;SDS011;8142;48.242;11.644;2023-12-20T13:55:57;1.63;;;1.50;;
16075;SDS011;8142;48.242;11.644;2023-12-20T13:58:25;5.60;;;2.10;;
16075;SDS011;8142;48.242;11.644;2023-12-20T14:00:51;2.23;;;1.73;;
16075;SDS011;8142;48.242;11.644;2023-12-20T14:03:17;2.87;;;1.77;;
16075;SDS011;8142;48.242;11.644;2023-12-20T14:05:45;2.50;;;1.73;;
16075;SDS011;8142;48.242;11.644;2023-12-20T14:08:11;3.27;;;1.70;;
16075;SDS011;8142;48.242;11.644;2023-12-20T14:10:37;3.33;;;1.97;;
16075;SDS011;8142;48.242;11.644;2023-12-20T14:13:04;4.20;;;1.60;;
16075;SDS011;8142;48.242;11.644;2023-12-20T14:15:30;2.27;;;1.70;;
16075;SDS011;8142;48.242;11.644;2023-12-20T14:18:05;2.70;;;1.80;;
16075;SDS011;8142;48.242;11.644;2023-12-20T14:20:33;3.13;;;1.60;;
16075;SDS011;8142;48.242;11.644;2023-12-20T14:23:03;3.13;;;1.57;;
16075;SDS011;8142;48.242;11.644;2023-12-20T14:25:30;2.57;;;1.50;;
16075;SDS011;8142;48.242;11.644;2023-12-20T14:27:56;2.90;;;1.43;;
16075;SDS011;8142;48.242;11.644;2023-12-20T14:30:23;4.43;;;1.90;;
16075;SDS011;8142;48.242;11.644;2023-12-20T14:32:49;3.30;;;1.63;;
16075;SDS011;8142;48.242;11.644;2023-12-20T14:35:15;3.30;;;1.60;;
16075;SDS011;8142;48.242;11.644;2023-12-20T14:37:41;3.20;;;1.43;;
16075;SDS011;8142;48.242;11.644;2023-12-20T14:40:07;4.23;;;1.80;;
16075;SDS011;8142;48.242;11.644;2023-12-20T14:42:40;2.93;;;1.60;;
16075;SDS011;8142;48.242;11.644;2023-12-20T14:45:07;2.97;;;1.77;;
16075;SDS011;8142;48.242;11.644;2023-12-20T14:47:33;5.60;;;1.70;;
16075;SDS011;8142;48.242;11.644;2023-12-20T14:49:59;3.20;;;1.60;;